createdAt,value
2023-03-27T00:01:35.709Z,8.10
2023-03-27T00:05:49.502Z,8.00
2023-03-27T00:07:55.625Z,8.00
2023-03-27T00:09:58.925Z,8.10
2023-03-27T00:12:03.271Z,8.20
2023-03-27T00:14:06.910Z,8.20
2023-03-27T00:16:11.922Z,8.20
2023-03-27T00:18:16.713Z,8.20
2023-03-27T00:20:22.957Z,8.30
2023-03-27T00:23:09.179Z,8.30
2023-03-27T00:25:14.601Z,8.50
2023-03-27T00:27:17.917Z,8.50
2023-03-27T00:29:21.219Z,8.60
2023-03-27T00:31:26.182Z,8.70
2023-03-27T00:33:29.596Z,8.70
2023-03-27T00:35:33.067Z,8.70
2023-03-27T00:37:36.516Z,8.70
2023-03-27T00:40:28.282Z,8.70
2023-03-27T00:42:31.732Z,8.60
2023-03-27T00:44:36.116Z,8.50
2023-03-27T00:46:43.024Z,8.40
2023-03-27T00:48:48.676Z,8.40
2023-03-27T00:50:53.289Z,8.40
2023-03-27T00:54:57.443Z,8.20
2023-03-27T00:57:02.435Z,8.10
2023-03-27T00:59:08.211Z,7.90
2023-03-27T01:01:11.993Z,7.90
2023-03-27T01:04:08.125Z,7.80
2023-03-27T01:06:14.082Z,7.70
2023-03-27T01:08:17.849Z,7.60
2023-03-27T01:10:21.393Z,7.60
2023-03-27T01:12:37.865Z,7.50
2023-03-27T01:14:45.931Z,7.50
2023-03-27T01:16:59.973Z,7.50
2023-03-27T01:19:13.862Z,7.50
2023-03-27T01:21:57.191Z,7.40
2023-03-27T01:24:34.362Z,7.30
2023-03-27T01:26:51.787Z,7.20
2023-03-27T01:28:56.364Z,7.20
2023-03-27T01:31:01.998Z,7.20
2023-03-27T01:33:43.784Z,7.10
2023-03-27T01:36:00.870Z,7.10
2023-03-27T01:38:28.886Z,7.00
2023-03-27T01:40:34.215Z,7.00
2023-03-27T01:42:37.990Z,7.10
2023-03-27T01:44:46.787Z,7.10
2023-03-27T01:46:51.354Z,7.10
2023-03-27T01:48:57.234Z,7.10
2023-03-27T01:51:02.198Z,7.00
2023-03-27T01:53:08.234Z,7.10
2023-03-27T01:55:13.458Z,7.00
2023-03-27T01:57:22.394Z,7.00
2023-03-27T01:59:27.713Z,7.00
2023-03-27T02:01:32.729Z,7.00
2023-03-27T02:03:38.930Z,7.00
2023-03-27T02:05:46.190Z,7.00
2023-03-27T02:07:52.817Z,7.00
2023-03-27T02:09:58.135Z,7.00
2023-03-27T02:12:03.972Z,7.00
2023-03-27T02:14:10.491Z,6.90
2023-03-27T02:16:16.208Z,6.90
2023-03-27T02:18:21.907Z,7.00
2023-03-27T02:20:25.392Z,7.00
2023-03-27T02:22:53.883Z,7.10
2023-03-27T02:24:57.493Z,7.10
2023-03-27T02:27:04.243Z,7.00
2023-03-27T02:29:31.140Z,7.10
2023-03-27T02:31:42.554Z,7.00
2023-03-27T02:34:12.021Z,7.00
2023-03-27T02:36:21.541Z,7.00
2023-03-27T02:38:27.517Z,7.00
2023-03-27T02:40:40.019Z,6.90
2023-03-27T02:42:48.844Z,7.00
2023-03-27T02:44:56.065Z,6.90
2023-03-27T02:47:01.178Z,6.90
2023-03-27T02:49:05.836Z,6.80
2023-03-27T02:51:10.700Z,6.70
2023-03-27T02:53:14.487Z,6.70
2023-03-27T02:55:19.149Z,6.80
2023-03-27T02:57:25.200Z,6.80
2023-03-27T02:59:30.899Z,6.70
2023-03-27T03:01:36.299Z,6.70
2023-03-27T03:03:41.958Z,6.70
2023-03-27T03:05:45.623Z,6.70
2023-03-27T03:07:48.970Z,6.60
2023-03-27T03:11:03.861Z,6.50
2023-03-27T03:13:07.206Z,6.40
2023-03-27T03:15:11.432Z,6.50
2023-03-27T03:17:16.313Z,6.40
2023-03-27T03:19:19.832Z,6.50
2023-03-27T03:21:23.463Z,6.40
2023-03-27T03:23:27.160Z,6.40
2023-03-27T03:29:00.431Z,6.40
2023-03-27T03:31:05.773Z,6.30
2023-03-27T03:33:11.060Z,6.40
2023-03-27T03:35:14.995Z,6.40
2023-03-27T03:37:18.491Z,6.40
2023-03-27T03:39:22.332Z,6.40
2023-03-27T03:42:04.683Z,6.40
2023-03-27T03:44:08.209Z,6.30
2023-03-27T03:46:11.747Z,6.30
2023-03-27T03:48:16.805Z,6.30
2023-03-27T03:50:20.372Z,6.40
2023-03-27T03:52:23.925Z,6.30
2023-03-27T03:54:27.341Z,6.20
2023-03-27T03:56:31.765Z,6.30
2023-03-27T03:58:35.370Z,6.30
2023-03-27T04:00:39.567Z,6.40
2023-03-27T04:02:43.824Z,6.40
2023-03-27T04:04:49.686Z,6.40
2023-03-27T04:06:58.400Z,6.50
2023-03-27T04:09:02.078Z,6.40
2023-03-27T04:11:06.867Z,6.50
2023-03-27T04:13:10.527Z,6.50
2023-03-27T04:15:14.306Z,6.50
2023-03-27T04:17:17.895Z,6.50
2023-03-27T04:19:22.610Z,6.50
2023-03-27T04:21:27.740Z,6.50
2023-03-27T04:23:31.724Z,6.40
2023-03-27T04:26:01.846Z,6.50
2023-03-27T04:28:06.040Z,6.30
2023-03-27T04:30:10.923Z,6.50
2023-03-27T04:32:19.353Z,6.50
2023-03-27T04:34:23.140Z,6.60
2023-03-27T04:36:31.080Z,6.60
2023-03-27T04:38:37.143Z,6.60
2023-03-27T04:40:40.832Z,6.50
2023-03-27T04:42:45.157Z,6.50
2023-03-27T04:45:08.317Z,6.30
2023-03-27T04:47:11.795Z,6.40
2023-03-27T04:49:16.358Z,6.50
2023-03-27T04:51:20.164Z,6.40
2023-03-27T04:53:31.311Z,6.50
2023-03-27T04:55:38.305Z,6.50
2023-03-27T04:57:42.549Z,6.60
2023-03-27T04:59:46.346Z,6.70
2023-03-27T05:01:50.873Z,6.70
2023-03-27T05:03:55.069Z,6.70
2023-03-27T05:05:58.899Z,6.70
2023-03-27T05:08:03.056Z,6.70
2023-03-27T05:10:09.149Z,6.70
2023-03-27T05:15:43.443Z,6.80
2023-03-27T05:17:53.232Z,6.80
2023-03-27T05:19:57.006Z,6.80
2023-03-27T05:22:00.377Z,6.80
2023-03-27T05:24:03.954Z,6.80
2023-03-27T05:26:13.190Z,6.80
2023-03-27T05:28:23.340Z,6.80
2023-03-27T05:30:27.524Z,6.80
2023-03-27T05:32:31.311Z,6.90
2023-03-27T05:34:34.962Z,6.90
2023-03-27T05:36:48.110Z,6.80
2023-03-27T05:38:54.028Z,6.80
2023-03-27T05:40:57.694Z,6.80
2023-03-27T05:43:02.700Z,6.70
2023-03-27T05:45:07.085Z,6.80
2023-03-27T05:47:11.335Z,6.70
2023-03-27T05:49:15.562Z,6.70
2023-03-27T05:51:46.758Z,6.60
2023-03-27T05:53:51.102Z,6.60
2023-03-27T05:56:02.405Z,6.70
2023-03-27T05:58:10.252Z,6.80
2023-03-27T06:00:16.596Z,6.90
2023-03-27T06:02:29.662Z,7.10
2023-03-27T06:04:34.451Z,7.20
2023-03-27T06:06:38.026Z,7.40
2023-03-27T06:08:41.568Z,7.50
2023-03-27T06:10:45.232Z,7.60
2023-03-27T06:12:49.555Z,7.70
2023-03-27T06:14:54.688Z,7.90
2023-03-27T06:16:58.535Z,8.10
2023-03-27T06:20:03.565Z,8.20
2023-03-27T06:22:08.502Z,8.30
2023-03-27T06:24:12.423Z,8.50
2023-03-27T06:26:16.072Z,8.70
2023-03-27T06:31:48.174Z,8.80
2023-03-27T06:33:54.628Z,9.00
2023-03-27T06:36:00.893Z,9.00
2023-03-27T06:38:06.624Z,9.00
2023-03-27T06:40:20.127Z,9.20
2023-03-27T06:42:23.847Z,9.30
2023-03-27T06:44:27.447Z,9.30
2023-03-27T06:46:42.593Z,9.40
2023-03-27T06:48:56.134Z,9.60
2023-03-27T06:50:59.824Z,9.70
2023-03-27T06:53:05.901Z,9.70
2023-03-27T06:55:14.825Z,9.60
2023-03-27T06:57:18.927Z,9.50
2023-03-27T06:59:22.776Z,9.60
2023-03-27T07:01:26.831Z,9.50
2023-03-27T07:03:30.650Z,9.60
2023-03-27T07:05:37.764Z,9.50
2023-03-27T07:07:41.793Z,9.50
2023-03-27T07:09:45.387Z,9.50
2023-03-27T07:11:49.334Z,9.50
2023-03-27T07:13:54.670Z,9.50
2023-03-27T07:15:58.399Z,9.50
2023-03-27T07:18:03.175Z,9.40
2023-03-27T07:20:08.312Z,9.40
2023-03-27T07:22:13.304Z,9.40
2023-03-27T07:24:16.834Z,9.30
2023-03-27T07:26:20.389Z,9.20
2023-03-27T07:28:23.552Z,9.30
2023-03-27T07:30:26.891Z,9.30
2023-03-27T07:32:37.285Z,9.40
2023-03-27T07:34:41.254Z,9.50
2023-03-27T07:36:44.729Z,9.60
2023-03-27T07:38:49.886Z,9.80
2023-03-27T07:40:53.405Z,10.00
2023-03-27T07:43:59.728Z,10.20
2023-03-27T07:46:03.284Z,10.40
2023-03-27T07:48:08.592Z,10.50
2023-03-27T07:50:14.078Z,10.50
2023-03-27T07:52:55.682Z,10.50
2023-03-27T07:55:00.887Z,10.40
2023-03-27T07:57:05.359Z,10.60
2023-03-27T07:59:08.845Z,10.80
2023-03-27T08:01:12.351Z,11.00
2023-03-27T08:03:55.160Z,11.00
2023-03-27T08:05:59.456Z,11.30
2023-03-27T08:08:03.464Z,11.40
2023-03-27T08:10:09.805Z,11.40
2023-03-27T08:12:13.688Z,11.50
2023-03-27T08:14:17.216Z,11.60
2023-03-27T08:19:46.682Z,11.70
2023-03-27T08:21:50.408Z,11.50
2023-03-27T08:23:57.723Z,11.10
2023-03-27T08:26:03.924Z,10.90
2023-03-27T08:28:19.761Z,10.80
2023-03-27T08:30:23.906Z,10.90
2023-03-27T08:32:28.121Z,11.20
2023-03-27T08:34:31.809Z,11.50
2023-03-27T08:36:35.430Z,11.70
2023-03-27T08:38:39.657Z,11.90
2023-03-27T08:40:48.119Z,12.00
2023-03-27T08:42:54.917Z,11.80
2023-03-27T08:45:10.521Z,11.70
2023-03-27T08:47:16.850Z,11.70
2023-03-27T08:49:23.305Z,11.90
2023-03-27T08:51:27.339Z,12.00
2023-03-27T08:53:53.924Z,12.10
2023-03-27T08:55:57.712Z,12.10
2023-03-27T08:58:03.149Z,12.30
2023-03-27T09:00:14.115Z,12.30
2023-03-27T09:02:23.439Z,12.40
2023-03-27T09:04:41.086Z,12.40
2023-03-27T09:06:49.476Z,12.40
2023-03-27T09:08:54.914Z,12.60
2023-03-27T09:11:00.599Z,12.80
2023-03-27T09:13:09.415Z,12.90
2023-03-27T09:15:14.385Z,13.10
2023-03-27T09:17:18.676Z,13.30
2023-03-27T09:19:26.229Z,13.40
2023-03-27T09:21:34.656Z,13.50
2023-03-27T09:23:39.621Z,13.50
2023-03-27T09:25:45.415Z,13.60
2023-03-27T09:27:58.168Z,13.70
2023-03-27T09:30:14.424Z,14.00
2023-03-27T09:32:17.993Z,14.10
2023-03-27T09:34:24.474Z,14.00
2023-03-27T09:36:29.368Z,13.90
2023-03-27T09:38:33.479Z,13.90
2023-03-27T09:40:42.408Z,14.10
2023-03-27T09:42:45.786Z,14.30
2023-03-27T09:44:50.902Z,14.40
2023-03-27T09:47:14.415Z,14.30
2023-03-27T09:49:18.676Z,14.40
2023-03-27T09:51:41.839Z,14.30
2023-03-27T09:54:07.665Z,14.10
2023-03-27T09:56:14.561Z,14.10
2023-03-27T09:58:32.097Z,14.30
2023-03-27T10:00:37.643Z,14.50
2023-03-27T10:02:42.702Z,14.80
2023-03-27T10:05:04.433Z,15.10
2023-03-27T10:07:10.407Z,15.40
2023-03-27T10:09:35.086Z,15.50
2023-03-27T10:11:40.178Z,15.50
2023-03-27T10:13:46.577Z,15.60
2023-03-27T10:15:50.344Z,15.80
2023-03-27T10:17:55.100Z,15.60
2023-03-27T10:20:01.283Z,15.40
2023-03-27T10:22:14.770Z,15.20
2023-03-27T10:24:22.688Z,15.30
2023-03-27T10:26:28.667Z,15.30
2023-03-27T10:28:35.213Z,15.20
2023-03-27T10:31:01.667Z,15.00
2023-03-27T10:33:07.569Z,14.70
2023-03-27T10:35:24.092Z,14.30
2023-03-27T10:37:29.436Z,14.10
2023-03-27T10:39:35.895Z,14.20
2023-03-27T10:41:39.682Z,14.20
2023-03-27T10:43:43.633Z,14.20
2023-03-27T10:45:49.638Z,14.20
2023-03-27T10:47:54.263Z,14.30
2023-03-27T10:50:04.139Z,14.30
2023-03-27T10:52:19.489Z,14.40
2023-03-27T10:54:34.305Z,14.60
2023-03-27T10:56:42.369Z,14.70
2023-03-27T10:58:47.952Z,14.80
2023-03-27T11:00:54.330Z,14.80
2023-03-27T11:03:00.357Z,14.90
2023-03-27T11:05:09.318Z,14.80
2023-03-27T11:07:18.184Z,14.70
2023-03-27T11:09:24.130Z,14.70
2023-03-27T11:11:29.195Z,14.70
2023-03-27T11:13:33.768Z,14.60
2023-03-27T11:15:42.472Z,14.20
2023-03-27T11:17:49.546Z,13.90
2023-03-27T11:19:54.882Z,13.80
2023-03-27T11:22:03.073Z,13.40
2023-03-27T11:24:09.673Z,13.30
2023-03-27T11:26:23.619Z,13.30
2023-03-27T11:28:31.962Z,13.50
2023-03-27T11:30:38.820Z,13.90
2023-03-27T11:32:44.764Z,14.40
2023-03-27T11:34:49.843Z,14.60
2023-03-27T11:36:54.357Z,14.60
2023-03-27T11:39:15.652Z,14.60
2023-03-27T11:41:19.650Z,14.70
2023-03-27T11:43:23.503Z,14.60
2023-03-27T11:45:28.056Z,14.50
2023-03-27T11:48:00.865Z,14.30
2023-03-27T11:50:17.002Z,13.80
2023-03-27T11:52:26.703Z,12.90
2023-03-27T11:54:49.350Z,11.60
2023-03-27T11:56:54.589Z,10.20
2023-03-27T11:59:08.785Z,9.00
2023-03-27T12:01:16.028Z,8.10
2023-03-27T12:03:43.265Z,7.40
2023-03-27T12:05:55.420Z,7.00
2023-03-27T12:08:02.655Z,6.90
2023-03-27T12:10:25.392Z,6.90
2023-03-27T12:12:46.808Z,7.10
2023-03-27T12:14:55.803Z,7.60
2023-03-27T12:17:25.263Z,8.10
2023-03-27T12:19:39.009Z,8.80
2023-03-27T12:21:50.415Z,9.50
2023-03-27T12:24:46.891Z,10.10
2023-03-27T12:27:17.850Z,10.60
2023-03-27T12:29:29.265Z,11.10
2023-03-27T12:31:45.836Z,11.40
2023-03-27T12:33:52.221Z,11.80
2023-03-27T12:35:57.831Z,12.00
2023-03-27T12:38:02.285Z,12.20
2023-03-27T12:40:43.737Z,12.30
2023-03-27T12:42:53.975Z,12.30
2023-03-27T12:45:07.420Z,12.50
2023-03-27T12:47:23.227Z,12.60
2023-03-27T12:49:48.088Z,12.80
2023-03-27T12:52:05.653Z,13.00
2023-03-27T12:54:26.463Z,13.20
2023-03-27T12:56:36.204Z,13.20
2023-03-27T12:58:41.640Z,13.30
2023-03-27T13:00:53.986Z,13.20
2023-03-27T13:03:17.545Z,13.20
2023-03-27T13:05:44.370Z,13.30
2023-03-27T13:07:54.232Z,13.50
2023-03-27T13:10:23.417Z,13.60
2023-03-27T13:12:49.621Z,13.70
2023-03-27T13:15:08.753Z,13.80
2023-03-27T13:17:41.256Z,13.70
2023-03-27T13:19:51.783Z,13.60
2023-03-27T13:22:03.843Z,13.30
2023-03-27T13:24:21.185Z,13.00
2023-03-27T13:26:32.025Z,12.80
2023-03-27T13:28:39.892Z,12.50
2023-03-27T13:30:47.372Z,12.20
2023-03-27T13:33:10.093Z,12.20
2023-03-27T13:35:35.010Z,12.20
2023-03-27T13:38:02.685Z,12.30
2023-03-27T13:40:24.853Z,12.50
2023-03-27T13:42:29.361Z,12.90
2023-03-27T13:44:47.313Z,13.20
2023-03-27T13:46:59.488Z,13.60
2023-03-27T13:49:44.499Z,13.90
2023-03-27T13:52:27.224Z,13.90
2023-03-27T13:54:51.040Z,13.80
2023-03-27T13:57:05.727Z,13.80
2023-03-27T13:59:37.067Z,14.00
2023-03-27T14:01:47.774Z,14.30
2023-03-27T14:04:03.635Z,14.40
2023-03-27T14:06:44.014Z,14.30
2023-03-27T14:08:48.564Z,14.00
2023-03-27T14:11:09.142Z,14.00
2023-03-27T14:13:41.370Z,14.10
2023-03-27T14:16:02.612Z,14.30
2023-03-27T14:18:23.196Z,14.70
2023-03-27T14:20:29.280Z,14.90
2023-03-27T14:22:34.279Z,15.10
2023-03-27T14:24:39.589Z,15.20
2023-03-27T14:26:45.483Z,15.40
2023-03-27T14:28:51.681Z,15.70
2023-03-27T14:30:55.762Z,15.90
2023-03-27T14:33:06.704Z,16.00
2023-03-27T14:35:24.825Z,16.10
2023-03-27T14:37:30.806Z,16.30
2023-03-27T14:39:38.130Z,16.60
2023-03-27T14:41:47.119Z,16.60
2023-03-27T14:43:51.206Z,16.30
2023-03-27T14:45:56.117Z,16.00
2023-03-27T14:48:09.275Z,15.60
2023-03-27T14:50:15.606Z,15.10
2023-03-27T14:52:33.628Z,14.60
2023-03-27T14:54:52.289Z,14.20
2023-03-27T14:57:00.172Z,14.10
2023-03-27T14:59:04.555Z,13.90
2023-03-27T15:01:08.475Z,13.70
2023-03-27T15:06:38.566Z,12.50
2023-03-27T15:08:42.649Z,12.00
2023-03-27T15:10:53.231Z,11.70
2023-03-27T15:12:56.988Z,11.50
2023-03-27T15:15:00.599Z,11.40
2023-03-27T15:17:07.709Z,11.20
2023-03-27T15:19:14.025Z,11.30
2023-03-27T15:21:20.052Z,11.30
2023-03-27T15:23:24.962Z,11.30
2023-03-27T15:25:33.455Z,11.20
2023-03-27T15:27:39.352Z,11.40
2023-03-27T15:29:43.553Z,11.80
2023-03-27T15:31:49.188Z,12.40
2023-03-27T15:33:54.806Z,13.10
2023-03-27T15:36:07.213Z,13.80
2023-03-27T15:38:14.165Z,14.60
2023-03-27T15:40:36.784Z,15.10
2023-03-27T15:42:48.355Z,15.80
2023-03-27T15:44:51.720Z,16.30
2023-03-27T15:46:56.406Z,16.70
2023-03-27T15:49:00.932Z,17.10
2023-03-27T15:51:05.104Z,17.30
2023-03-27T15:53:08.595Z,17.30
2023-03-27T15:55:12.096Z,17.50
2023-03-27T15:57:16.749Z,17.60
2023-03-27T15:59:23.362Z,17.70
2023-03-27T16:01:31.749Z,17.80
2023-03-27T16:03:35.936Z,17.80
2023-03-27T16:05:42.561Z,17.80
2023-03-27T16:07:51.128Z,17.60
2023-03-27T16:10:02.936Z,17.40
2023-03-27T16:12:06.755Z,17.00
2023-03-27T16:14:30.566Z,16.60
2023-03-27T16:16:35.336Z,16.30
2023-03-27T16:18:39.208Z,16.10
2023-03-27T16:20:43.695Z,16.00
2023-03-27T16:22:47.279Z,16.00
2023-03-27T16:24:51.340Z,16.20
2023-03-27T16:26:55.096Z,16.40
2023-03-27T16:29:02.389Z,16.60
2023-03-27T16:31:17.404Z,16.90
2023-03-27T16:33:22.726Z,17.20
2023-03-27T16:35:27.159Z,17.50
2023-03-27T16:37:30.894Z,17.60
2023-03-27T16:39:34.716Z,17.60
2023-03-27T16:41:38.369Z,17.70
2023-03-27T16:43:41.912Z,17.70
2023-03-27T16:45:46.132Z,17.60
2023-03-27T16:47:53.338Z,17.50
2023-03-27T16:50:10.395Z,17.50
2023-03-27T16:52:15.050Z,17.40
2023-03-27T16:54:19.726Z,17.40
2023-03-27T16:56:23.620Z,17.20
2023-03-27T16:58:27.274Z,16.80
2023-03-27T17:00:32.046Z,16.50
2023-03-27T17:02:36.850Z,15.80
2023-03-27T17:04:43.995Z,15.10
2023-03-27T17:06:48.211Z,14.40
2023-03-27T17:09:04.549Z,13.90
2023-03-27T17:11:09.775Z,13.50
2023-03-27T17:13:13.563Z,13.10
2023-03-27T17:15:17.587Z,12.70
2023-03-27T17:17:21.336Z,12.40
2023-03-27T17:19:25.146Z,12.00
2023-03-27T17:21:30.134Z,11.60
2023-03-27T17:23:34.794Z,11.40
2023-03-27T17:25:38.557Z,11.20
2023-03-27T17:27:42.299Z,11.10
2023-03-27T17:29:45.667Z,11.00
2023-03-27T17:31:49.405Z,10.90
2023-03-27T17:33:52.954Z,10.60
2023-03-27T17:35:57.213Z,10.50
2023-03-27T17:38:03.473Z,10.30
2023-03-27T17:40:09.912Z,10.20
2023-03-27T17:42:13.463Z,10.00
2023-03-27T17:44:17.017Z,9.90
2023-03-27T17:46:20.602Z,9.70
2023-03-27T17:48:24.089Z,9.50
2023-03-27T17:50:27.361Z,9.30
2023-03-27T17:52:30.928Z,9.30
2023-03-27T17:54:36.273Z,9.30
2023-03-27T17:56:41.240Z,9.20
2023-03-27T17:58:49.232Z,9.20
2023-03-27T18:00:52.931Z,9.10
2023-03-27T18:02:56.349Z,9.00
2023-03-27T18:05:00.408Z,8.80
2023-03-27T18:07:04.217Z,8.80
2023-03-27T18:09:09.892Z,8.60
2023-03-27T18:11:15.807Z,8.40
2023-03-27T18:13:19.761Z,8.20
2023-03-27T18:15:23.302Z,8.10
2023-03-27T18:17:27.730Z,8.10
2023-03-27T18:19:31.375Z,8.00
2023-03-27T18:21:35.110Z,7.90
2023-03-27T18:23:46.030Z,7.90
2023-03-27T18:25:51.378Z,7.90
2023-03-27T18:27:56.217Z,8.00
2023-03-27T18:29:59.907Z,8.00
2023-03-27T18:32:04.488Z,8.00
2023-03-27T18:34:08.408Z,8.00
2023-03-27T18:36:12.262Z,8.00
2023-03-27T18:38:18.236Z,8.00
2023-03-27T18:40:22.652Z,8.00
2023-03-27T18:42:27.332Z,7.90
2023-03-27T18:44:32.475Z,7.90
2023-03-27T18:46:36.270Z,7.80
2023-03-27T18:48:41.957Z,7.80
2023-03-27T18:50:45.655Z,7.80
2023-03-27T18:52:49.409Z,7.70
2023-03-27T18:54:52.992Z,7.60
2023-03-27T18:56:56.630Z,7.50
2023-03-27T18:59:01.270Z,7.50
2023-03-27T19:01:09.032Z,7.50
2023-03-27T19:03:14.451Z,7.60
2023-03-27T19:05:18.392Z,7.70
2023-03-27T19:07:22.131Z,7.70
2023-03-27T19:09:38.116Z,7.70
2023-03-27T19:11:44.244Z,7.70
2023-03-27T19:13:47.676Z,7.70
2023-03-27T19:15:51.299Z,7.70
2023-03-27T19:17:56.315Z,7.70
2023-03-27T19:19:59.751Z,7.50
2023-03-27T19:22:06.098Z,7.40
2023-03-27T19:24:09.607Z,7.30
2023-03-27T19:26:14.287Z,7.20
2023-03-27T19:28:18.481Z,7.20
2023-03-27T19:30:22.097Z,7.20
2023-03-27T19:32:25.681Z,7.20
2023-03-27T19:34:42.134Z,7.20
2023-03-27T19:36:46.410Z,7.20
2023-03-27T19:38:49.949Z,7.20
2023-03-27T19:40:53.507Z,7.20
2023-03-27T19:42:57.119Z,7.20
2023-03-27T19:45:00.764Z,7.20
2023-03-27T19:47:04.173Z,7.20
2023-03-27T19:49:08.051Z,7.30
2023-03-27T19:51:18.501Z,7.30
2023-03-27T19:53:22.566Z,7.40
2023-03-27T19:55:26.568Z,7.30
2023-03-27T19:57:29.834Z,7.20
2023-03-27T19:59:36.635Z,7.10
2023-03-27T20:01:40.087Z,7.10
2023-03-27T20:03:43.591Z,7.10
2023-03-27T20:05:48.061Z,7.10
2023-03-27T20:07:53.120Z,7.10
2023-03-27T20:10:08.565Z,7.20
2023-03-27T20:12:12.674Z,7.10
2023-03-27T20:14:17.188Z,7.10
2023-03-27T20:16:21.026Z,7.10
2023-03-27T20:18:24.459Z,7.10
2023-03-27T20:20:29.610Z,7.10
2023-03-27T20:22:38.657Z,7.10
2023-03-27T20:24:48.573Z,7.10
2023-03-27T20:26:54.890Z,7.20
2023-03-27T20:28:58.407Z,7.20
2023-03-27T20:31:05.599Z,7.20
2023-03-27T20:33:09.704Z,7.20
2023-03-27T20:35:33.040Z,7.20
2023-03-27T20:37:39.689Z,7.20
2023-03-27T20:39:44.885Z,7.20
2023-03-27T20:41:51.340Z,7.20
2023-03-27T20:43:55.047Z,7.10
2023-03-27T20:45:59.788Z,7.10
2023-03-27T20:48:04.389Z,7.10
2023-03-27T20:50:09.060Z,7.20
2023-03-27T20:52:13.655Z,7.20
2023-03-27T20:55:06.879Z,7.20
2023-03-27T20:57:11.922Z,7.10
2023-03-27T20:59:15.403Z,7.10
2023-03-27T21:01:20.431Z,7.10
2023-03-27T21:03:24.073Z,7.00
2023-03-27T21:05:27.869Z,7.00
2023-03-27T21:07:34.131Z,7.00
2023-03-27T21:09:38.344Z,7.00
2023-03-27T21:11:41.746Z,6.90
2023-03-27T21:13:46.630Z,6.90
2023-03-27T21:15:50.237Z,6.90
2023-03-27T21:17:53.690Z,7.00
2023-03-27T21:19:57.094Z,6.90
2023-03-27T21:22:19.616Z,6.90
2023-03-27T21:24:23.207Z,7.00
2023-03-27T21:26:26.874Z,6.90
2023-03-27T21:28:30.263Z,6.90
2023-03-27T21:30:46.358Z,6.90
2023-03-27T21:32:51.135Z,6.80
2023-03-27T21:34:55.315Z,6.80
2023-03-27T21:37:02.967Z,6.80
2023-03-27T21:39:06.610Z,6.80
2023-03-27T21:41:10.955Z,6.80
2023-03-27T21:43:14.439Z,6.80
2023-03-27T21:45:18.048Z,6.90
2023-03-27T21:47:23.096Z,6.80
2023-03-27T21:49:26.847Z,6.90
2023-03-27T21:51:30.327Z,6.90
2023-03-27T21:53:33.802Z,6.90
2023-03-27T21:55:37.611Z,6.90
2023-03-27T21:57:41.112Z,6.90
2023-03-27T21:59:44.657Z,6.90
2023-03-27T22:01:48.048Z,6.80
2023-03-27T22:03:59.493Z,6.80
2023-03-27T22:06:11.592Z,6.80
2023-03-27T22:08:17.384Z,6.80
2023-03-27T22:10:21.019Z,6.80
2023-03-27T22:12:24.390Z,6.70
2023-03-27T22:17:43.913Z,6.70
2023-03-27T22:19:48.817Z,6.80
2023-03-27T22:21:52.265Z,6.80
2023-03-27T22:24:46.778Z,6.80
2023-03-27T22:26:50.280Z,6.80
2023-03-27T22:28:53.756Z,6.80
2023-03-27T22:30:57.149Z,6.70
2023-03-27T22:33:00.784Z,6.70
2023-03-27T22:35:06.027Z,6.70
2023-03-27T22:37:10.232Z,6.70
2023-03-27T22:39:13.669Z,6.70
2023-03-27T22:44:42.666Z,6.70
2023-03-27T22:46:46.187Z,6.70
2023-03-27T22:48:49.631Z,6.60
2023-03-27T22:50:57.535Z,6.60
2023-03-27T22:53:00.785Z,6.50
2023-03-27T22:59:24.983Z,6.60
2023-03-27T23:01:28.405Z,6.50
2023-03-27T23:03:32.106Z,6.50
2023-03-27T23:05:39.524Z,6.50
2023-03-27T23:07:44.205Z,6.50
2023-03-27T23:09:47.512Z,6.50
2023-03-27T23:11:51.132Z,6.50
2023-03-27T23:13:54.450Z,6.50
2023-03-27T23:15:58.112Z,6.50
2023-03-27T23:18:01.994Z,6.50
2023-03-27T23:20:06.046Z,6.50
2023-03-27T23:23:04.319Z,6.50
2023-03-27T23:25:09.927Z,6.50
2023-03-27T23:27:13.235Z,6.40
2023-03-27T23:29:16.680Z,6.50
2023-03-27T23:31:20.902Z,6.40
2023-03-27T23:33:25.420Z,6.40
2023-03-27T23:35:28.938Z,6.50
2023-03-27T23:40:55.936Z,6.50
2023-03-27T23:42:59.345Z,6.60
2023-03-27T23:45:02.615Z,6.50
2023-03-27T23:47:16.055Z,6.50
2023-03-27T23:49:19.434Z,6.50
2023-03-27T23:51:22.895Z,6.50
2023-03-27T23:53:27.597Z,6.50
2023-03-27T23:55:30.939Z,6.50
2023-03-27T23:57:35.782Z,6.50
2023-03-27T23:59:39.261Z,6.50
